Time;durP1;ratioP1;P1;durP2;ratioP2;P2;SDS_P1;SDS_P2;PMS_P1;PMS_P2;Temp;Humidity;BMP_temperature;BMP_pressure;BME280_temperature;BME280_humidity;BME280_pressure;Samples;Min_cycle;Max_cycle;Signal;HPM_P1;HPM_P2
2021/03/29 00:00:12;;;;;;;17.27;3.27;;;11.10;99.90;;;;;;5103651;28;20946;-63
2021/03/29 00:02:39;;;;;;;8.23;2.93;;;11.20;99.90;;;;;;5102529;28;20532;-64
2021/03/29 00:05:06;;;;;;;12.53;3.53;;;11.20;99.90;;;;;;5109632;28;20902;-63
2021/03/29 00:07:34;;;;;;;13.57;3.50;;;11.30;99.90;;;;;;5100837;28;20517;-63
2021/03/29 00:10:02;;;;;;;10.53;3.60;;;11.30;99.90;;;;;;5099195;28;20534;-64
2021/03/29 00:12:28;;;;;;;11.33;3.47;;;11.30;99.90;;;;;;5112163;28;20520;-63
2021/03/29 00:14:56;;;;;;;11.10;3.20;;;11.30;99.90;;;;;;5100776;28;20540;-63
2021/03/29 00:17:22;;;;;;;8.63;3.67;;;11.30;99.90;;;;;;5091949;28;20529;-63
2021/03/29 00:19:50;;;;;;;9.90;2.80;;;11.30;99.90;;;;;;5095810;28;20550;-63
2021/03/29 00:22:17;;;;;;;8.90;2.67;;;11.30;99.90;;;;;;5111432;28;20437;-63
2021/03/29 00:24:43;;;;;;;10.67;2.77;;;11.30;99.90;;;;;;5099552;28;20490;-64
2021/03/29 00:27:10;;;;;;;11.43;3.17;;;11.40;99.90;;;;;;5112361;28;20595;-63
2021/03/29 00:29:36;;;;;;;10.17;2.90;;;11.40;99.90;;;;;;5109285;28;20934;-63
2021/03/29 00:32:05;;;;;;;8.40;3.03;;;11.40;99.90;;;;;;5100283;28;20530;-64
2021/03/29 00:34:32;;;;;;;12.40;3.30;;;11.40;99.90;;;;;;5098932;28;20450;-64
2021/03/29 00:37:00;;;;;;;13.97;3.37;;;11.40;99.90;;;;;;5091543;28;20536;-64
2021/03/29 00:39:28;;;;;;;8.03;2.90;;;11.40;99.90;;;;;;5096445;28;20529;-64
2021/03/29 00:41:55;;;;;;;11.77;3.13;;;11.40;99.90;;;;;;5111920;28;20547;-63
2021/03/29 00:44:22;;;;;;;13.33;3.43;;;11.40;99.90;;;;;;5106601;28;20441;-64
2021/03/29 00:46:49;;;;;;;9.03;2.87;;;11.40;99.90;;;;;;5110364;28;20460;-64
2021/03/29 00:49:17;;;;;;;12.30;3.47;;;11.40;99.90;;;;;;5116055;28;20429;-64
2021/03/29 00:51:43;;;;;;;11.90;3.20;;;11.40;99.90;;;;;;5097600;28;20522;-65
2021/03/29 00:54:11;;;;;;;18.60;3.50;;;11.50;99.90;;;;;;5095879;28;20454;-64
2021/03/29 00:56:38;;;;;;;9.50;3.03;;;11.50;99.90;;;;;;5097022;28;20442;-63
2021/03/29 00:59:06;;;;;;;14.63;4.10;;;11.50;99.90;;;;;;5094991;28;20800;-64
2021/03/29 01:01:39;;;;;;;9.67;3.37;;;11.40;99.90;;;;;;5095000;28;20447;-64
2021/03/29 01:04:07;;;;;;;6.93;2.83;;;11.40;99.90;;;;;;5100498;28;20442;-64
2021/03/29 01:06:39;;;;;;;10.60;3.80;;;11.40;99.90;;;;;;5095097;28;20453;-63
2021/03/29 01:09:08;;;;;;;9.63;2.87;;;11.40;99.90;;;;;;5090740;28;20962;-64
2021/03/29 01:11:40;;;;;;;10.57;4.10;;;11.30;99.90;;;;;;5097012;28;20486;-64
2021/03/29 01:14:11;;;;;;;11.43;3.50;;;11.30;99.90;;;;;;5097789;28;20993;-64
2021/03/29 01:16:42;;;;;;;13.37;3.67;;;11.30;99.90;;;;;;5087760;28;20456;-65
2021/03/29 01:19:15;;;;;;;13.07;3.70;;;11.20;99.90;;;;;;5095430;28;20450;-63
2021/03/29 01:21:54;;;;;;;10.77;3.00;;;11.20;99.90;;;;;;5102229;28;20505;-64
2021/03/29 01:24:25;;;;;;;8.87;3.83;;;11.00;99.90;;;;;;5105147;28;20460;-64
2021/03/29 01:26:54;;;;;;;9.80;2.90;;;11.00;99.90;;;;;;5095749;28;20477;-65
2021/03/29 01:29:29;;;;;;;11.33;3.10;;;11.00;99.90;;;;;;5094774;28;20524;-63
2021/03/29 01:31:58;;;;;;;16.47;3.73;;;10.90;99.90;;;;;;5079251;28;20469;-63
2021/03/29 01:34:25;;;;;;;7.43;3.00;;;10.90;99.90;;;;;;5104266;28;20448;-63
2021/03/29 01:36:52;;;;;;;16.13;3.87;;;10.90;99.90;;;;;;5115171;28;20481;-64
2021/03/29 01:39:18;;;;;;;12.40;3.10;;;10.80;99.90;;;;;;5112436;28;20465;-63
2021/03/29 01:41:46;;;;;;;11.70;3.30;;;10.80;99.90;;;;;;5095999;28;20464;-63
2021/03/29 01:44:14;;;;;;;15.70;4.70;;;10.80;99.90;;;;;;5102694;28;20525;-63
2021/03/29 01:46:41;;;;;;;11.00;3.53;;;10.80;99.90;;;;;;5099208;28;20524;-64
2021/03/29 01:49:07;;;;;;;11.40;3.70;;;10.80;99.90;;;;;;5114439;28;20508;-63
2021/03/29 01:51:34;;;;;;;12.77;3.43;;;10.70;99.90;;;;;;5096593;28;20557;-65
2021/03/29 01:54:01;;;;;;;9.47;3.63;;;10.70;99.90;;;;;;5094876;28;20545;-64
2021/03/29 01:56:28;;;;;;;13.07;3.43;;;10.80;99.90;;;;;;5097398;28;20464;-64
2021/03/29 01:58:54;;;;;;;9.77;3.10;;;10.80;99.90;;;;;;5114691;28;20437;-65
2021/03/29 02:01:21;;;;;;;9.27;3.13;;;10.80;99.90;;;;;;5097272;28;20966;-63
2021/03/29 02:03:49;;;;;;;13.73;3.60;;;10.80;99.90;;;;;;5109348;28;20442;-64
2021/03/29 02:06:16;;;;;;;7.73;2.83;;;10.80;99.90;;;;;;5111264;28;20464;-64
2021/03/29 02:08:45;;;;;;;9.90;3.47;;;10.80;99.90;;;;;;5102441;28;20446;-64
2021/03/29 02:11:13;;;;;;;12.23;5.20;;;10.80;99.90;;;;;;5094977;28;20497;-65
2021/03/29 02:13:42;;;;;;;10.07;3.10;;;10.70;99.90;;;;;;5110285;28;20523;-65
2021/03/29 02:16:12;;;;;;;11.60;3.47;;;10.60;99.90;;;;;;5094393;28;20538;-64
2021/03/29 02:18:41;;;;;;;10.20;3.20;;;10.50;99.90;;;;;;5092380;28;20446;-64
2021/03/29 02:21:11;;;;;;;12.10;3.13;;;10.60;99.90;;;;;;5098362;28;21194;-64
2021/03/29 02:23:37;;;;;;;10.30;3.13;;;10.60;99.90;;;;;;5095590;28;20441;-64
2021/03/29 02:26:05;;;;;;;15.70;3.43;;;10.60;99.90;;;;;;5101234;28;20568;-64
2021/03/29 02:28:32;;;;;;;10.70;2.83;;;10.50;99.90;;;;;;5104923;28;20445;-64
2021/03/29 02:31:01;;;;;;;14.10;4.40;;;10.50;99.90;;;;;;5096627;28;20474;-64
2021/03/29 02:33:28;;;;;;;12.93;3.20;;;10.40;99.90;;;;;;5093327;28;20878;-64
2021/03/29 02:35:55;;;;;;;7.70;2.60;;;10.40;99.90;;;;;;5094925;28;20807;-64
2021/03/29 02:38:22;;;;;;;9.40;2.80;;;10.50;99.90;;;;;;5111579;28;20445;-64
2021/03/29 02:40:50;;;;;;;9.50;2.63;;;10.50;99.90;;;;;;5097641;28;20442;-64
2021/03/29 02:43:19;;;;;;;9.80;2.70;;;10.60;99.90;;;;;;5110150;28;20465;-64
2021/03/29 02:45:50;;;;;;;10.57;3.20;;;10.50;99.90;;;;;;5098128;28;20532;-64
2021/03/29 02:48:18;;;;;;;7.20;2.40;;;10.60;99.90;;;;;;5110796;28;20902;-64
2021/03/29 02:50:49;;;;;;;7.23;2.73;;;10.60;99.90;;;;;;5095134;28;20573;-65
2021/03/29 02:53:19;;;;;;;12.23;3.10;;;10.70;99.90;;;;;;5094940;28;20451;-64
2021/03/29 02:55:46;;;;;;;8.73;3.27;;;10.70;99.90;;;;;;5100495;28;20951;-64
2021/03/29 02:58:14;;;;;;;11.57;2.70;;;10.80;99.90;;;;;;5096315;28;20453;-64
2021/03/29 03:00:41;;;;;;;12.13;2.87;;;11.00;99.90;;;;;;5101121;28;20537;-64
2021/03/29 03:03:09;;;;;;;7.50;2.67;;;10.90;99.90;;;;;;5113411;28;21001;-64
2021/03/29 03:05:37;;;;;;;10.17;3.10;;;10.90;99.90;;;;;;5112217;28;20520;-65
2021/03/29 03:08:05;;;;;;;11.57;2.93;;;11.00;99.90;;;;;;5110532;28;20451;-64
2021/03/29 03:10:33;;;;;;;10.83;3.27;;;11.00;99.90;;;;;;5095224;28;20539;-64
2021/03/29 03:13:03;;;;;;;8.57;2.50;;;11.00;99.90;;;;;;5109553;28;20848;-64
2021/03/29 03:15:30;;;;;;;6.93;2.20;;;11.00;99.90;;;;;;5112871;28;20469;-64
2021/03/29 03:17:59;;;;;;;10.10;2.87;;;11.00;99.90;;;;;;5111464;28;20795;-64
2021/03/29 03:20:50;;;;;;;11.93;2.60;;;11.00;99.90;;;;;;5109835;28;20458;-63
2021/03/29 03:23:17;;;;;;;11.70;2.50;;;10.90;99.90;;;;;;5078252;28;20465;-64
2021/03/29 03:25:46;;;;;;;9.03;2.70;;;11.00;99.90;;;;;;5092100;28;20443;-64
2021/03/29 03:28:14;;;;;;;12.60;3.10;;;11.00;99.90;;;;;;5105360;28;20868;-63
2021/03/29 03:30:42;;;;;;;9.20;2.50;;;11.00;99.90;;;;;;5103865;28;21034;-64
2021/03/29 03:33:11;;;;;;;11.07;2.57;;;10.90;99.90;;;;;;5095105;28;20447;-64
2021/03/29 03:35:39;;;;;;;8.87;2.30;;;10.90;99.90;;;;;;5109571;28;20451;-64
2021/03/29 03:38:10;;;;;;;8.40;1.90;;;10.90;99.90;;;;;;5095142;28;20953;-64
2021/03/29 03:40:38;;;;;;;9.37;2.63;;;10.80;99.90;;;;;;5093066;28;20533;-64
2021/03/29 03:43:07;;;;;;;9.23;2.50;;;10.80;99.90;;;;;;5092497;28;20474;-64
2021/03/29 03:45:40;;;;;;;7.97;2.80;;;10.80;99.90;;;;;;5101442;28;20498;-64
2021/03/29 03:48:08;;;;;;;8.10;3.27;;;10.90;99.90;;;;;;5106462;28;20469;-64
2021/03/29 03:50:35;;;;;;;9.50;2.50;;;10.90;99.90;;;;;;5108905;28;20481;-64
2021/03/29 03:53:03;;;;;;;10.63;2.50;;;10.90;99.90;;;;;;5112922;28;20540;-64
2021/03/29 03:55:29;;;;;;;9.37;2.47;;;10.90;99.90;;;;;;5094402;28;20516;-64
2021/03/29 03:57:56;;;;;;;8.40;3.27;;;10.90;99.90;;;;;;5107485;28;20528;-64
2021/03/29 04:00:25;;;;;;;9.10;2.23;;;11.00;99.90;;;;;;5103391;28;20459;-64
2021/03/29 04:02:52;;;;;;;5.37;1.57;;;10.90;99.90;;;;;;5098796;28;20458;-47
2021/03/29 04:05:19;;;;;;;10.10;2.60;;;11.50;99.90;;;;;;5097538;28;20526;-47
2021/03/29 04:07:47;;;;;;;12.13;3.00;;;11.70;99.90;;;;;;5106989;28;20189;-51
2021/03/29 04:10:20;;;;;;;6.80;2.53;;;11.70;99.90;;;;;;5096017;28;20473;-65
2021/03/29 04:12:53;;;;;;;13.10;2.60;;;11.90;99.90;;;;;;5112770;28;20475;-66
2021/03/29 04:15:19;;;;;;;16.50;3.40;;;11.50;99.90;;;;;;5097768;28;20457;-64
2021/03/29 04:17:47;;;;;;;9.10;2.93;;;11.30;99.90;;;;;;5105849;28;20833;-64
2021/03/29 04:20:15;;;;;;;7.97;2.27;;;11.30;99.90;;;;;;5101858;28;20505;-66
2021/03/29 04:22:42;;;;;;;14.27;2.50;;;11.20;99.90;;;;;;5095382;28;20516;-67
2021/03/29 04:25:12;;;;;;;10.90;2.40;;;11.10;99.90;;;;;;5098584;28;20968;-64
2021/03/29 04:27:38;;;;;;;10.50;2.70;;;11.00;99.90;;;;;;5093523;28;20847;-65
2021/03/29 04:30:07;;;;;;;6.87;2.30;;;11.00;99.90;;;;;;5112759;28;20524;-65
2021/03/29 04:32:33;;;;;;;11.20;2.67;;;10.90;99.90;;;;;;5099307;28;20442;-64
2021/03/29 04:35:00;;;;;;;13.10;2.90;;;10.90;99.90;;;;;;5104140;28;20524;-64
2021/03/29 04:37:27;;;;;;;8.67;2.27;;;10.90;99.90;;;;;;5111636;28;20476;-67
2021/03/29 04:39:53;;;;;;;12.13;2.50;;;10.80;99.90;;;;;;5103430;28;20485;-67
2021/03/29 04:42:20;;;;;;;8.97;2.70;;;10.80;99.90;;;;;;5091909;28;20529;-66
2021/03/29 04:44:46;;;;;;;8.50;2.53;;;10.70;99.90;;;;;;5091729;28;20474;-65
2021/03/29 04:47:13;;;;;;;12.77;2.90;;;10.60;99.90;;;;;;5099843;28;20514;-65
2021/03/29 04:49:41;;;;;;;10.63;2.57;;;10.60;99.90;;;;;;5094272;28;20478;-64
2021/03/29 04:52:09;;;;;;;12.83;3.50;;;10.60;99.90;;;;;;5092163;28;20517;-65
2021/03/29 04:54:35;;;;;;;11.20;2.90;;;10.60;99.90;;;;;;5105651;28;20457;-65
2021/03/29 04:57:02;;;;;;;9.47;2.60;;;10.50;99.90;;;;;;5099641;28;20842;-64
2021/03/29 04:59:29;;;;;;;11.13;3.50;;;10.40;99.90;;;;;;5100892;28;20530;-64
2021/03/29 05:01:55;;;;;;;8.57;2.33;;;10.40;99.90;;;;;;5110851;28;20515;-64
2021/03/29 05:04:21;;;;;;;11.30;2.40;;;10.40;99.90;;;;;;5097231;28;20452;-65
2021/03/29 05:06:48;;;;;;;8.60;2.53;;;10.30;99.90;;;;;;5101465;28;20858;-65
2021/03/29 05:09:15;;;;;;;9.63;2.47;;;10.40;99.90;;;;;;5111847;28;20946;-65
2021/03/29 05:11:49;;;;;;;9.03;2.30;;;10.50;99.90;;;;;;5111552;28;20484;-65
2021/03/29 05:14:16;;;;;;;10.87;2.87;;;10.40;99.90;;;;;;5112005;28;20995;-64
2021/03/29 05:16:43;;;;;;;6.00;1.90;;;10.30;99.90;;;;;;5092373;28;20787;-66
2021/03/29 05:19:09;;;;;;;8.10;2.30;;;10.30;99.90;;;;;;5091674;28;20478;-66
2021/03/29 05:21:36;;;;;;;10.00;2.73;;;10.20;99.90;;;;;;5091647;28;20755;-66
2021/03/29 05:24:02;;;;;;;10.03;2.20;;;10.20;99.90;;;;;;5091554;28;20473;-65
2021/03/29 05:26:30;;;;;;;8.00;2.40;;;10.20;99.90;;;;;;5091073;28;20450;-66
2021/03/29 05:28:56;;;;;;;11.13;2.63;;;10.30;99.90;;;;;;5093113;28;20442;-66
2021/03/29 05:31:22;;;;;;;10.30;2.40;;;10.30;99.90;;;;;;5095191;28;20898;-67
2021/03/29 05:33:49;;;;;;;9.93;2.70;;;10.30;99.90;;;;;;5095283;28;20533;-66
2021/03/29 05:36:16;;;;;;;10.10;2.33;;;10.40;99.90;;;;;;5109873;28;20448;-66
2021/03/29 05:38:45;;;;;;;6.20;2.20;;;10.50;99.90;;;;;;5115641;28;20926;-65
2021/03/29 05:41:13;;;;;;;12.47;3.13;;;10.50;99.90;;;;;;5100604;28;20608;-65
2021/03/29 05:43:42;;;;;;;11.10;2.67;;;10.70;99.90;;;;;;5095100;28;20796;-65
2021/03/29 05:46:09;;;;;;;7.40;2.50;;;10.60;99.90;;;;;;5098916;28;20525;-66
2021/03/29 05:48:36;;;;;;;9.83;2.50;;;10.70;99.90;;;;;;5097133;28;20827;-65
2021/03/29 05:51:03;;;;;;;10.80;2.63;;;10.70;99.90;;;;;;5098925;28;20518;-65
2021/03/29 05:53:30;;;;;;;18.30;2.83;;;10.80;99.90;;;;;;5102538;28;20541;-64
2021/03/29 05:55:59;;;;;;;11.90;2.67;;;10.80;99.90;;;;;;5089606;28;21050;-63
2021/03/29 05:58:36;;;;;;;13.30;3.03;;;10.90;99.90;;;;;;5089313;28;20628;-64
2021/03/29 06:01:04;;;;;;;8.17;2.70;;;10.90;99.90;;;;;;5080777;28;20546;-64
2021/03/29 06:03:34;;;;;;;9.07;2.67;;;11.00;99.90;;;;;;5083148;28;20974;-64
2021/03/29 06:06:02;;;;;;;10.93;2.57;;;11.10;99.90;;;;;;5084668;28;20529;-63
2021/03/29 06:08:29;;;;;;;9.80;2.77;;;11.10;99.90;;;;;;5080582;28;20976;-63
2021/03/29 06:10:57;;;;;;;10.87;2.70;;;11.00;99.90;;;;;;5101663;28;21048;-64
2021/03/29 06:13:28;;;;;;;11.70;2.40;;;11.00;99.90;;;;;;5084911;28;20533;-64
2021/03/29 06:16:05;;;;;;;8.63;2.60;;;11.00;99.90;;;;;;5088868;28;20484;-66
2021/03/29 06:18:32;;;;;;;9.43;3.00;;;11.00;99.90;;;;;;5083791;28;20499;-63
2021/03/29 06:27:55;;;;;;;11.00;2.13;;;11.10;99.90;;;;;;5099995;22;20243;-63
2021/03/29 06:30:27;;;;;;;8.40;2.70;;;11.30;99.90;;;;;;5104643;27;20461;-64
2021/03/29 06:32:56;;;;;;;7.43;2.53;;;11.30;99.90;;;;;;5117173;27;20452;-66
2021/03/29 06:35:25;;;;;;;8.53;2.40;;;11.30;99.90;;;;;;5117448;27;20453;-63
2021/03/29 06:37:52;;;;;;;7.40;2.60;;;11.40;99.90;;;;;;5107028;27;20540;-64
2021/03/29 06:40:19;;;;;;;12.33;2.53;;;11.50;99.90;;;;;;5109170;27;20462;-63
2021/03/29 06:42:45;;;;;;;14.67;2.80;;;11.60;99.90;;;;;;5105216;28;20460;-61
2021/03/29 06:45:14;;;;;;;8.27;2.78;;;11.60;99.90;;;;;;5117752;27;20466;-66
2021/03/29 06:47:40;;;;;;;8.53;2.47;;;11.70;99.90;;;;;;5111352;27;20282;-62
2021/03/29 06:50:21;;;;;;;10.73;2.40;;;11.70;99.90;;;;;;5120800;27;20459;-62
2021/03/29 06:52:47;;;;;;;12.05;3.40;;;11.80;99.90;;;;;;5102972;28;20443;-61
2021/03/29 06:55:20;;;;;;;11.83;3.27;;;11.80;99.90;;;;;;5106213;27;20229;-63
2021/03/29 06:57:58;;;;;;;8.97;2.10;;;12.00;99.90;;;;;;5103273;28;20531;-60
2021/03/29 07:00:31;;;;;;;7.90;2.90;;;12.00;99.90;;;;;;5110376;28;20445;-63
2021/03/29 07:03:29;;;;;;;10.90;3.03;;;12.00;99.90;;;;;;5106942;27;20481;-60
2021/03/29 07:05:57;;;;;;;10.20;2.80;;;12.10;99.90;;;;;;5112202;27;20450;-62
2021/03/29 07:08:26;;;;;;;11.33;2.83;;;12.20;99.90;;;;;;5109951;27;20495;-61
2021/03/29 07:10:54;;;;;;;6.63;2.50;;;12.20;99.90;;;;;;5108332;27;20481;-61
2021/03/29 07:13:21;;;;;;;12.17;2.47;;;12.30;99.90;;;;;;5103687;27;20537;-64
2021/03/29 07:15:48;;;;;;;10.83;2.47;;;12.40;99.90;;;;;;5111730;28;20538;-63
2021/03/29 07:18:16;;;;;;;8.10;2.27;;;12.40;99.90;;;;;;5106793;28;20437;-61
2021/03/29 07:20:42;;;;;;;13.03;3.10;;;12.60;99.90;;;;;;5103996;28;20544;-62
2021/03/29 07:23:10;;;;;;;9.20;2.73;;;12.60;99.90;;;;;;5106529;28;21074;-61
2021/03/29 07:25:36;;;;;;;7.63;2.80;;;12.70;99.90;;;;;;5101402;28;20452;-61
2021/03/29 07:28:09;;;;;;;10.90;2.50;;;12.80;99.90;;;;;;5100890;27;20458;-62
2021/03/29 07:30:45;;;;;;;12.40;3.00;;;12.90;99.90;;;;;;5116444;27;20488;-60
2021/03/29 07:33:13;;;;;;;9.00;2.53;;;12.90;99.90;;;;;;5110241;27;20627;-60
2021/03/29 07:35:50;;;;;;;7.50;3.00;;;13.00;99.90;;;;;;5110206;28;20456;-63
2021/03/29 07:38:19;;;;;;;12.20;2.80;;;13.50;99.90;;;;;;5096815;28;20453;-62
2021/03/29 07:40:48;;;;;;;7.70;2.40;;;14.40;99.90;;;;;;5107435;28;20477;-64
2021/03/29 07:43:19;;;;;;;7.47;3.17;;;15.10;99.90;;;;;;5111634;28;20508;-65
2021/03/29 07:45:52;;;;;;;8.47;2.43;;;15.30;99.90;;;;;;5111446;28;20503;-61
2021/03/29 07:48:39;;;;;;;7.40;2.97;;;15.80;99.90;;;;;;5112277;28;20441;-62
2021/03/29 07:51:10;;;;;;;10.43;2.87;;;16.60;99.90;;;;;;5110762;28;20905;-62
2021/03/29 07:53:43;;;;;;;9.55;2.88;;;17.10;99.90;;;;;;5111094;28;20446;-62
2021/03/29 07:56:10;;;;;;;10.57;2.50;;;17.80;99.90;;;;;;5111796;28;20400;-63
2021/03/29 07:58:45;;;;;;;7.70;2.40;;;18.30;99.90;;;;;;5112236;28;20528;-65
2021/03/29 08:01:13;;;;;;;9.40;2.40;;;18.20;99.90;;;;;;5112024;28;20445;-64
2021/03/29 08:03:48;;;;;;;7.40;2.60;;;17.80;99.90;;;;;;5107825;28;20460;-63
2021/03/29 08:06:44;;;;;;;7.60;2.90;;;17.70;99.90;;;;;;5111582;28;20494;-64
2021/03/29 08:09:42;;;;;;;12.93;3.00;;;17.40;99.90;;;;;;5112177;28;20565;-62
2021/03/29 08:12:08;;;;;;;7.73;2.17;;;17.70;99.90;;;;;;5110802;28;20575;-61
2021/03/29 08:14:42;;;;;;;8.23;2.50;;;17.80;99.90;;;;;;5117812;27;20539;-63
2021/03/29 08:17:38;;;;;;;8.00;2.40;;;18.50;99.90;;;;;;5123606;28;20882;-64
2021/03/29 08:20:16;;;;;;;8.70;2.37;;;19.10;99.90;;;;;;5128665;27;20449;-61
2021/03/29 08:22:43;;;;;;;8.37;2.17;;;19.00;99.90;;;;;;5111621;28;20453;-64
2021/03/29 08:25:28;;;;;;;9.37;2.97;;;20.20;99.90;;;;;;5111980;28;20460;-63
2021/03/29 08:27:56;;;;;;;10.43;2.70;;;20.40;99.90;;;;;;5111848;28;20477;-62
2021/03/29 08:30:24;;;;;;;8.33;3.33;;;21.60;98.10;;;;;;5111149;28;20477;-63
2021/03/29 08:32:51;;;;;;;9.10;2.80;;;21.50;96.90;;;;;;5111709;28;20531;-63
2021/03/29 08:35:21;;;;;;;7.00;1.93;;;21.10;95.50;;;;;;5099596;28;20532;-66
2021/03/29 08:37:50;;;;;;;8.50;2.50;;;21.50;95.60;;;;;;5103933;28;20446;-61
2021/03/29 08:40:20;;;;;;;6.83;2.40;;;21.40;95.00;;;;;;5110676;28;20448;-65
2021/03/29 08:42:49;;;;;;;9.03;3.17;;;21.20;93.40;;;;;;5111916;28;20441;-62
2021/03/29 08:45:18;;;;;;;10.13;3.00;;;20.70;93.80;;;;;;5123185;28;20555;-69
2021/03/29 08:47:46;;;;;;;7.07;2.60;;;20.80;93.30;;;;;;5127264;28;20527;-64
2021/03/29 08:50:14;;;;;;;7.27;2.47;;;19.80;93.10;;;;;;5118609;28;20533;-63
2021/03/29 08:52:44;;;;;;;11.10;2.40;;;20.00;94.10;;;;;;5110476;28;20904;-61
2021/03/29 08:55:15;;;;;;;7.80;2.47;;;19.40;93.30;;;;;;5110807;28;20861;-60
2021/03/29 08:57:41;;;;;;;6.90;2.00;;;19.80;96.00;;;;;;5127647;28;20830;-50
2021/03/29 09:00:11;;;;;;;11.75;2.70;;;21.30;99.90;;;;;;5106564;28;20534;-65
2021/03/29 09:02:38;;;;;;;5.67;2.23;;;22.20;93.50;;;;;;5099263;28;20264;-64
2021/03/29 09:05:07;;;;;;;7.97;2.60;;;22.30;90.90;;;;;;5114330;27;20455;-65
2021/03/29 09:07:37;;;;;;;10.13;2.57;;;22.50;91.00;;;;;;5120733;27;20544;-63
2021/03/29 09:10:15;;;;;;;12.73;3.93;;;22.90;90.40;;;;;;5122244;27;20483;-63
2021/03/29 09:12:43;;;;;;;8.73;3.67;;;23.20;84.80;;;;;;5128555;27;20582;-63
2021/03/29 09:15:16;;;;;;;9.00;3.53;;;22.40;85.00;;;;;;5133127;27;20540;-63
2021/03/29 09:17:44;;;;;;;8.67;2.53;;;22.60;86.00;;;;;;5132051;27;20843;-66
2021/03/29 09:20:21;;;;;;;8.33;2.17;;;22.70;83.90;;;;;;5108387;28;20544;-64
2021/03/29 09:22:48;;;;;;;7.00;2.33;;;22.50;83.50;;;;;;5112666;28;20459;-63
2021/03/29 09:25:23;;;;;;;10.90;2.90;;;24.30;82.90;;;;;;5112298;28;20461;-63
2021/03/29 09:28:08;;;;;;;7.40;2.43;;;24.90;79.00;;;;;;5111746;27;20444;-64
2021/03/29 09:30:35;;;;;;;9.00;2.30;;;23.40;77.20;;;;;;5100088;27;20968;-65
2021/03/29 09:33:02;;;;;;;9.93;2.37;;;22.30;78.90;;;;;;5121067;27;20436;-69
2021/03/29 09:35:28;;;;;;;13.07;2.77;;;23.60;82.40;;;;;;5121650;27;20473;-67
2021/03/29 09:37:55;;;;;;;12.17;2.83;;;23.20;77.20;;;;;;5106026;28;20536;-63
2021/03/29 09:40:21;;;;;;;8.87;2.87;;;24.00;77.90;;;;;;5107118;27;20947;-63
2021/03/29 09:42:50;;;;;;;9.60;2.83;;;25.20;75.80;;;;;;5102362;28;20501;-64
2021/03/29 09:45:23;;;;;;;7.03;2.27;;;26.10;71.60;;;;;;5104520;28;20871;-60
2021/03/29 09:48:04;;;;;;;6.93;2.50;;;26.20;70.50;;;;;;5105748;27;20445;-64
2021/03/29 09:50:35;;;;;;;8.83;3.20;;;27.30;68.00;;;;;;5111757;27;20453;-61
2021/03/29 09:53:14;;;;;;;8.50;3.17;;;27.30;64.90;;;;;;5112616;27;20499;-67
2021/03/29 09:55:43;;;;;;;9.40;2.60;;;25.10;66.30;;;;;;5111139;28;20448;-61
2021/03/29 09:58:24;;;;;;;12.68;3.05;;;24.30;65.00;;;;;;5110884;28;20484;-64
2021/03/29 10:00:52;;;;;;;11.03;2.67;;;25.20;67.80;;;;;;5110719;28;20207;-66
2021/03/29 10:03:21;;;;;;;9.80;3.50;;;26.20;66.40;;;;;;5112509;28;20528;-68
2021/03/29 10:05:49;;;;;;;8.17;3.20;;;26.90;65.30;;;;;;5107286;27;20447;-63
2021/03/29 10:08:29;;;;;;;11.57;3.10;;;27.40;61.20;;;;;;5120306;27;20488;-65
2021/03/29 10:11:04;;;;;;;7.60;2.50;;;26.20;59.50;;;;;;5096052;28;20491;-64
2021/03/29 10:13:36;;;;;;;9.50;3.23;;;26.50;59.50;;;;;;5095046;28;20456;-62
2021/03/29 10:16:22;;;;;;;8.80;2.47;;;28.10;59.30;;;;;;5107584;27;20452;-61
2021/03/29 10:19:06;;;;;;;8.10;2.50;;;30.20;58.00;;;;;;5102434;27;20479;-63
2021/03/29 10:21:34;;;;;;;10.40;2.67;;;30.10;55.30;;;;;;5105804;27;20256;-62
2021/03/29 10:24:14;;;;;;;8.83;2.43;;;28.00;55.80;;;;;;5105566;27;20453;-63
2021/03/29 10:26:53;;;;;;;11.77;2.47;;;29.10;53.30;;;;;;5112811;27;20473;-64
2021/03/29 10:29:29;;;;;;;6.40;2.30;;;29.10;53.80;;;;;;5112160;27;20488;-63
2021/03/29 10:31:56;;;;;;;6.90;1.80;;;29.90;52.20;;;;;;5106393;28;20479;-63
2021/03/29 10:34:23;;;;;;;7.03;2.10;;;29.50;54.20;;;;;;5106825;27;20930;-64
2021/03/29 10:36:49;;;;;;;5.00;1.60;;;29.20;50.40;;;;;;5108110;27;20528;-63
2021/03/29 10:39:16;;;;;;;6.17;1.80;;;29.40;49.50;;;;;;5105240;27;20458;-67
2021/03/29 10:41:42;;;;;;;7.90;2.57;;;29.70;50.40;;;;;;5111952;28;20449;-63
2021/03/29 10:44:08;;;;;;;6.97;1.90;;;31.10;47.50;;;;;;5111535;28;20544;-63
2021/03/29 10:46:35;;;;;;;8.87;1.77;;;29.50;46.60;;;;;;5099764;28;20485;-62
2021/03/29 10:49:01;;;;;;;6.97;1.63;;;28.50;47.70;;;;;;5117231;27;20536;-62
2021/03/29 10:51:29;;;;;;;8.70;1.97;;;29.40;48.00;;;;;;5113670;27;20602;-64
2021/03/29 10:53:55;;;;;;;7.63;2.20;;;30.40;48.70;;;;;;5107097;27;20999;-64
2021/03/29 10:56:21;;;;;;;6.63;2.30;;;28.80;45.60;;;;;;5110557;27;20444;-62
2021/03/29 10:58:48;;;;;;;9.30;2.03;;;30.40;46.00;;;;;;5117727;27;20473;-62
2021/03/29 11:01:14;;;;;;;7.60;2.37;;;30.70;44.70;;;;;;5096215;28;21244;-63
2021/03/29 11:03:40;;;;;;;8.10;2.10;;;32.20;43.90;;;;;;5098621;28;20455;-61
2021/03/29 11:06:07;;;;;;;6.53;2.13;;;32.80;42.50;;;;;;5088266;28;20538;-62
2021/03/29 11:08:34;;;;;;;10.20;2.60;;;32.80;45.10;;;;;;5092127;28;20446;-62
2021/03/29 11:11:03;;;;;;;9.27;2.47;;;34.40;42.60;;;;;;5096114;28;20485;-63
2021/03/29 11:13:30;;;;;;;5.83;1.90;;;33.60;40.60;;;;;;5082017;28;20482;-65
2021/03/29 11:15:57;;;;;;;6.27;1.83;;;33.40;38.90;;;;;;5083637;28;20450;-65
2021/03/29 11:18:24;;;;;;;10.60;2.20;;;34.20;41.30;;;;;;5080397;28;20454;-63
2021/03/29 11:20:50;;;;;;;7.43;2.40;;;34.50;37.80;;;;;;5093024;28;20520;-62
2021/03/29 11:23:17;;;;;;;5.10;1.50;;;34.60;37.70;;;;;;5082748;28;20597;-63
2021/03/29 11:25:44;;;;;;;5.53;1.87;;;35.10;38.20;;;;;;5080336;28;20443;-62
2021/03/29 11:28:11;;;;;;;6.40;2.13;;;34.80;38.60;;;;;;5084322;28;20490;-63
2021/03/29 11:30:37;;;;;;;5.57;1.73;;;34.40;38.80;;;;;;5088134;28;20455;-62
2021/03/29 11:33:04;;;;;;;7.07;2.53;;;34.50;37.30;;;;;;5085387;28;20616;-62
2021/03/29 11:35:31;;;;;;;5.10;1.93;;;34.60;35.90;;;;;;5092467;28;20890;-62
2021/03/29 11:37:57;;;;;;;6.13;2.00;;;34.40;35.80;;;;;;5100621;28;21005;-62
2021/03/29 11:40:23;;;;;;;5.97;1.87;;;34.50;37.80;;;;;;5095172;28;20478;-64
2021/03/29 11:42:51;;;;;;;6.03;1.83;;;35.50;35.80;;;;;;5086288;28;20482;-61
2021/03/29 11:45:17;;;;;;;6.43;1.73;;;34.30;34.60;;;;;;5089587;28;20445;-61
2021/03/29 11:47:44;;;;;;;5.93;1.60;;;33.80;35.10;;;;;;5090043;28;20458;-63
2021/03/29 11:50:13;;;;;;;8.83;1.97;;;33.10;36.90;;;;;;5081308;28;21301;-61
2021/03/29 11:52:40;;;;;;;8.10;2.10;;;33.80;37.40;;;;;;5086288;28;20489;-61
2021/03/29 11:55:08;;;;;;;5.03;1.73;;;33.50;37.20;;;;;;5107274;28;20963;-61
2021/03/29 11:57:35;;;;;;;4.60;1.60;;;34.00;34.40;;;;;;5079406;28;20466;-59
2021/03/29 12:00:06;;;;;;;5.70;1.70;;;34.20;33.20;;;;;;5084538;28;20523;-62
2021/03/29 12:02:36;;;;;;;4.80;1.60;;;35.30;33.00;;;;;;5100343;28;20460;-60
2021/03/29 12:05:07;;;;;;;6.27;2.00;;;34.70;34.20;;;;;;5105340;28;20494;-64
2021/03/29 12:07:41;;;;;;;6.47;2.47;;;35.70;34.70;;;;;;5083381;28;20473;-61
2021/03/29 12:12:54;;;;;;;7.73;3.10;;;36.80;35.80;;;;;;5094494;28;20476;-61
2021/03/29 12:15:22;;;;;;;8.40;2.20;;;34.50;34.90;;;;;;5094942;28;20452;-64
2021/03/29 12:17:49;;;;;;;5.00;1.83;;;35.40;33.80;;;;;;5101930;28;20443;-62
2021/03/29 12:20:17;;;;;;;7.00;2.20;;;35.60;32.60;;;;;;5103168;28;20529;-62
2021/03/29 12:22:44;;;;;;;7.20;2.40;;;36.30;33.10;;;;;;5103332;28;20850;-61
2021/03/29 12:25:15;;;;;;;9.03;2.87;;;36.20;32.10;;;;;;5105169;28;20457;-61
2021/03/29 12:27:44;;;;;;;7.43;2.27;;;35.20;33.50;;;;;;5087920;28;20481;-64
2021/03/29 12:30:14;;;;;;;14.53;2.87;;;35.90;34.50;;;;;;5081926;28;20458;-61
2021/03/29 12:32:43;;;;;;;7.90;2.27;;;37.30;33.40;;;;;;5064243;28;20848;-63
2021/03/29 12:35:16;;;;;;;7.57;2.13;;;37.90;32.80;;;;;;5088630;28;20514;-62
2021/03/29 12:37:44;;;;;;;6.78;2.40;;;38.80;32.30;;;;;;5090370;28;20421;-62
2021/03/29 12:40:13;;;;;;;10.23;2.57;;;37.70;32.30;;;;;;5082179;28;20196;-62
2021/03/29 12:42:48;;;;;;;5.90;2.03;;;36.40;32.40;;;;;;5092725;28;20496;-63
2021/03/29 12:45:22;;;;;;;10.30;2.77;;;35.60;31.60;;;;;;5086677;28;20457;-63
2021/03/29 12:47:50;;;;;;;5.40;2.23;;;35.80;31.70;;;;;;5087057;28;20939;-63
2021/03/29 12:50:18;;;;;;;9.20;2.27;;;36.90;30.70;;;;;;5090931;28;20507;-62
2021/03/29 12:52:47;;;;;;;5.63;1.53;;;35.20;31.10;;;;;;5093730;28;20853;-62
2021/03/29 12:55:16;;;;;;;11.07;2.53;;;33.90;33.70;;;;;;5093395;28;20499;-62
2021/03/29 12:57:43;;;;;;;7.20;2.30;;;35.50;31.80;;;;;;5088708;28;20448;-64
2021/03/29 13:00:11;;;;;;;5.83;2.07;;;35.00;32.10;;;;;;5085158;28;20199;-64
2021/03/29 13:02:38;;;;;;;8.13;1.90;;;36.40;33.40;;;;;;5087519;28;20454;-67